This is the latest recevied weather packets stored in our database for station/object EB5AGF-13. If no packets are shown the sender has not sent any weather packets the latest 1 day(s).
| Time | Temp. | Humidity | Pressure | Rain* | Wind** | Luminosity | Snow |
|---|---|---|---|---|---|---|---|
| 1778050551 | 18.33° C | 58% | 1008.2 hPa | 0 mm | 0.89 m/s, 4° | 184 W/m² | - |
| 1778050247 | 17.78° C | 61% | 1008.2 hPa | 0 mm | 0.89 m/s, 353° | 110 W/m² | - |
| 1778049932 | 17.22° C | 63% | 1008.4 hPa | 0 mm | 0.45 m/s, 359° | 88 W/m² | - |
| 1778049642 | 17.22° C | 64% | 1008.4 hPa | 0 mm | 0.89 m/s, 20° | 50 W/m² | - |
| 1778049331 | 17.22° C | 65% | 1008.4 hPa | 0 mm | 1.34 m/s, 14° | 102 W/m² | - |
| 1778049031 | 16.67° C | 68% | 1008.5 hPa | 0 mm | 0.45 m/s, 5° | 95 W/m² | - |
| 1778025607 | 17.78° C | 78% | 1007.9 hPa | 0 mm | 1.34 m/s, 312° | 0 W/m² | - |
| 1778025303 | 18.33° C | 77% | 1007.9 hPa | 0 mm | 1.34 m/s, 18° | 0 W/m² | - |
| 1778024999 | 18.33° C | 78% | 1008 hPa | 0 mm | 0.45 m/s, 21° | 0 W/m² | - |
| 1778024696 | 17.78° C | 80% | 1008 hPa | 0 mm | 0.89 m/s, 307° | 0 W/m² | - |
| 1778024391 | 18.33° C | 82% | 1007.6 hPa | 0 mm | 0 m/s | 0 W/m² | - |
| 1778024087 | 18.33° C | 82% | 1007.5 hPa | 0 mm | 0.45 m/s, 275° | 0 W/m² | - |
| 1778023784 | 18.33° C | 82% | 1007.5 hPa | 0 mm | 0.45 m/s, 272° | 0 W/m² | - |
| 1778023479 | 18.33° C | 82% | 1007.6 hPa | 0 mm | 0 m/s | 0 W/m² | - |
| 1778023172 | 18.33° C | 82% | 1007.7 hPa | 0 mm | 0 m/s | 0 W/m² | - |
| 1778022871 | 18.33° C | 82% | 1007.5 hPa | 0 mm | 0 m/s | 0 W/m² | - |
| 1778022568 | 18.33° C | 82% | 1007.4 hPa | 0 mm | 0.45 m/s, 242° | 0 W/m² | - |
| 1778022263 | 18.33° C | 82% | 1007.6 hPa | 0 mm | 0 m/s | 0 W/m² | - |
| 1778021959 | 18.33° C | 82% | 1007.7 hPa | 0 mm | 0.45 m/s, 199° | 0 W/m² | - |
| 1778021655 | 18.33° C | 81% | 1007.6 hPa | 0 mm | 0 m/s | 0 W/m² | - |
| 1778021352 | 18.89° C | 81% | 1007.9 hPa | 0 mm | 0 m/s | 0 W/m² | - |
| 1778021047 | 18.33° C | 81% | 1007.9 hPa | 0 mm | 0 m/s | 0 W/m² | - |
| 1778020743 | 18.89° C | 81% | 1007.9 hPa | 0 mm | 0 m/s | 0 W/m² | - |
| 1778020439 | 18.89° C | 79% | 1008 hPa | 0 mm | 0 m/s | 0 W/m² | - |
| 1778020136 | 18.33° C | 77% | 1008 hPa | 0 mm | 0 m/s | 0 W/m² | - |
* Rain latest hour (hover to see other rain measurements)
** Current wind speed in m/s (hover to see current wind gust speed)